createdAt,value
2023-04-10T00:00:38.310Z,14.85
2023-04-10T00:03:06.158Z,14.85
2023-04-10T00:05:33.438Z,14.74
2023-04-10T00:08:01.071Z,14.76
2023-04-10T00:10:30.461Z,14.52
2023-04-10T00:12:59.269Z,14.66
2023-04-10T00:15:26.634Z,14.54
2023-04-10T00:17:55.424Z,14.49
2023-04-10T00:20:23.506Z,14.46
2023-04-10T00:22:50.596Z,14.62
2023-04-10T00:25:17.832Z,14.75
2023-04-10T00:27:44.869Z,14.59
2023-04-10T00:30:11.965Z,14.48
2023-04-10T00:32:38.977Z,14.51
2023-04-10T00:35:08.143Z,14.62
2023-04-10T00:37:35.795Z,14.45
2023-04-10T00:40:03.464Z,14.47
2023-04-10T00:42:30.766Z,14.32
2023-04-10T00:44:57.909Z,14.38
2023-04-10T00:47:26.218Z,14.25
2023-04-10T00:49:53.826Z,14.23
2023-04-10T00:52:20.916Z,14.17
2023-04-10T00:54:48.233Z,14.23
2023-04-10T00:57:15.634Z,14.14
2023-04-10T00:59:42.720Z,14.32
2023-04-10T01:02:13.145Z,14.16
2023-04-10T01:04:41.026Z,14.26
2023-04-10T01:07:48.955Z,14.40
2023-04-10T01:10:26.441Z,14.32
2023-04-10T01:13:23.271Z,14.32
2023-04-10T01:16:06.490Z,14.52
2023-04-10T01:18:46.767Z,14.46
2023-04-10T01:21:15.946Z,14.43
2023-04-10T01:23:57.895Z,14.49
2023-04-10T01:27:21.957Z,14.47
2023-04-10T01:29:56.574Z,14.34
2023-04-10T01:32:24.915Z,14.19
2023-04-10T01:34:55.874Z,14.24
2023-04-10T01:37:28.093Z,14.31
2023-04-10T01:39:59.655Z,14.39
2023-04-10T01:42:31.484Z,14.20
2023-04-10T01:45:00.883Z,14.13
2023-04-10T01:47:29.094Z,13.96
2023-04-10T01:49:58.834Z,14.18
2023-04-10T01:52:27.202Z,14.14
2023-04-10T01:55:08.175Z,14.06
2023-04-10T01:57:42.813Z,13.94
2023-04-10T02:00:10.883Z,13.95
2023-04-10T02:02:44.693Z,13.82
2023-04-10T02:05:12.015Z,13.72
2023-04-10T02:08:00.666Z,13.97
2023-04-10T02:10:46.151Z,13.88
2023-04-10T02:13:16.250Z,13.85
2023-04-10T02:15:46.640Z,13.83
2023-04-10T02:18:17.016Z,13.78
2023-04-10T02:20:44.629Z,13.70
2023-04-10T02:23:16.203Z,13.83
2023-04-10T02:25:43.374Z,13.69
2023-04-10T02:28:10.606Z,13.78
2023-04-10T02:30:39.240Z,13.62
2023-04-10T02:33:06.405Z,13.53
2023-04-10T02:35:34.271Z,13.58
2023-04-10T02:38:03.331Z,13.62
2023-04-10T02:40:33.866Z,13.72
2023-04-10T02:43:12.760Z,13.43
2023-04-10T02:45:41.728Z,13.42
2023-04-10T02:48:14.073Z,13.48
2023-04-10T02:50:46.076Z,13.45
2023-04-10T02:53:16.965Z,13.62
2023-04-10T02:55:44.058Z,13.48
2023-04-10T02:58:13.854Z,13.39
2023-04-10T03:00:42.100Z,13.38
2023-04-10T03:03:17.292Z,13.32
2023-04-10T03:05:51.781Z,13.27
2023-04-10T03:08:24.502Z,13.26
2023-04-10T03:10:51.591Z,13.11
2023-04-10T03:13:18.898Z,13.16
2023-04-10T03:15:45.938Z,13.05
2023-04-10T03:18:13.251Z,12.99
2023-04-10T03:20:45.054Z,13.13
2023-04-10T03:23:12.512Z,13.16
2023-04-10T03:25:39.490Z,13.01
2023-04-10T03:28:08.251Z,12.98
2023-04-10T03:30:37.129Z,13.12
2023-04-10T03:33:04.373Z,13.08
2023-04-10T03:35:31.681Z,13.07
2023-04-10T03:37:59.985Z,12.97
2023-04-10T03:40:27.454Z,12.99
2023-04-10T03:42:54.495Z,13.03
2023-04-10T03:45:21.582Z,12.98
2023-04-10T03:47:48.613Z,12.92
2023-04-10T03:50:16.504Z,12.94
2023-04-10T03:52:52.158Z,12.94
2023-04-10T03:55:22.749Z,12.76
2023-04-10T03:57:51.360Z,12.83
2023-04-10T04:00:22.106Z,12.83
2023-04-10T04:02:53.029Z,12.88
2023-04-10T04:05:46.055Z,12.83
2023-04-10T04:08:45.510Z,12.71
2023-04-10T04:11:36.262Z,12.76
2023-04-10T04:14:07.610Z,12.77
2023-04-10T04:16:47.722Z,12.77
2023-04-10T04:19:33.539Z,12.82
2023-04-10T04:22:09.717Z,12.83
2023-04-10T04:24:56.901Z,12.82
2023-04-10T04:27:50.721Z,12.71
2023-04-10T04:30:41.743Z,12.67
2023-04-10T04:33:18.439Z,12.69
2023-04-10T04:36:20.924Z,12.67
2023-04-10T04:38:54.746Z,12.70
2023-04-10T04:41:40.238Z,12.67
2023-04-10T04:44:15.997Z,12.61
2023-04-10T04:47:00.781Z,12.66
2023-04-10T04:49:46.652Z,12.60
2023-04-10T04:52:25.694Z,12.68
2023-04-10T04:55:19.069Z,12.68
2023-04-10T04:58:21.318Z,12.62
2023-04-10T05:01:11.065Z,12.57
2023-04-10T05:04:01.319Z,12.56
2023-04-10T05:06:39.446Z,12.62
2023-04-10T05:09:38.757Z,12.67
2023-04-10T05:12:20.904Z,12.59
2023-04-10T05:15:03.483Z,12.72
2023-04-10T05:17:37.806Z,12.66
2023-04-10T05:20:23.449Z,12.62
2023-04-10T05:23:17.511Z,12.81
2023-04-10T05:26:16.640Z,12.70
2023-04-10T05:28:57.317Z,12.47
2023-04-10T05:31:30.495Z,12.52
2023-04-10T05:34:19.934Z,12.55
2023-04-10T05:37:07.162Z,12.55
2023-04-10T05:40:00.072Z,12.70
2023-04-10T05:42:27.314Z,12.66
2023-04-10T05:45:09.249Z,12.65
2023-04-10T05:47:41.041Z,12.59
2023-04-10T05:50:29.971Z,12.62
2023-04-10T05:53:20.240Z,12.75
2023-04-10T05:56:24.646Z,12.69
2023-04-10T05:58:54.782Z,12.59
2023-04-10T06:01:47.252Z,12.83
2023-04-10T06:04:15.887Z,12.74
2023-04-10T06:06:43.891Z,12.80
2023-04-10T06:09:24.883Z,12.98
2023-04-10T06:11:52.208Z,12.92
2023-04-10T06:14:23.150Z,13.03
2023-04-10T06:16:50.472Z,12.86
2023-04-10T06:19:17.493Z,12.85
2023-04-10T06:21:44.697Z,12.96
2023-04-10T06:24:14.190Z,13.33
2023-04-10T06:26:41.280Z,13.25
2023-04-10T06:29:10.594Z,13.21
2023-04-10T06:31:38.131Z,13.20
2023-04-10T06:34:05.398Z,12.22
2023-04-10T06:36:35.089Z,12.99
2023-04-10T06:39:06.693Z,12.93
2023-04-10T06:41:33.993Z,13.10
2023-04-10T06:44:15.811Z,12.92
2023-04-10T06:46:42.902Z,12.74
2023-04-10T06:49:10.453Z,12.82
2023-04-10T06:51:37.786Z,12.63
2023-04-10T06:54:04.924Z,13.00
2023-04-10T06:56:32.144Z,12.98
2023-04-10T06:58:59.176Z,12.95
2023-04-10T07:01:26.612Z,12.82
2023-04-10T07:03:53.829Z,12.95
2023-04-10T07:06:21.316Z,13.04
2023-04-10T07:08:51.592Z,12.54
2023-04-10T07:11:18.661Z,12.49
2023-04-10T07:13:46.068Z,13.01
2023-04-10T07:16:13.198Z,13.08
2023-04-10T07:18:41.565Z,12.93
2023-04-10T07:21:13.272Z,12.82
2023-04-10T07:23:41.144Z,13.10
2023-04-10T07:26:08.177Z,12.92
2023-04-10T07:28:35.311Z,13.36
2023-04-10T07:31:02.425Z,13.20
2023-04-10T07:33:29.676Z,13.58
2023-04-10T07:35:56.928Z,13.73
2023-04-10T07:38:24.696Z,13.27
2023-04-10T07:41:01.315Z,13.93
2023-04-10T07:43:28.337Z,13.73
2023-04-10T07:45:57.504Z,13.61
2023-04-10T07:48:25.043Z,13.64
2023-04-10T07:50:52.152Z,13.99
2023-04-10T07:53:19.824Z,14.00
2023-04-10T07:55:48.829Z,13.75
2023-04-10T07:58:16.480Z,13.88
2023-04-10T08:00:43.582Z,14.17
2023-04-10T08:03:13.225Z,14.38
2023-04-10T08:05:40.799Z,14.23
2023-04-10T08:08:07.768Z,14.45
2023-04-10T08:10:38.457Z,14.24
2023-04-10T08:13:06.335Z,14.21
2023-04-10T08:15:33.689Z,14.27
2023-04-10T08:18:00.912Z,14.41
2023-04-10T08:20:28.482Z,14.73
2023-04-10T08:22:58.934Z,14.79
2023-04-10T08:25:31.258Z,14.33
2023-04-10T08:28:00.457Z,14.07
2023-04-10T08:30:27.456Z,13.53
2023-04-10T08:32:54.517Z,13.42
2023-04-10T08:35:21.627Z,13.34
2023-04-10T08:37:53.616Z,13.89
2023-04-10T08:40:29.530Z,14.26
2023-04-10T08:42:56.627Z,14.26
2023-04-10T08:45:23.637Z,14.43
2023-04-10T08:47:53.322Z,13.71
2023-04-10T08:50:20.750Z,14.39
2023-04-10T08:52:52.982Z,13.94
2023-04-10T08:55:20.779Z,15.17
2023-04-10T08:57:54.347Z,14.97
2023-04-10T09:00:29.042Z,14.46
2023-04-10T09:05:45.492Z,14.83
2023-04-10T09:08:15.651Z,14.86
2023-04-10T09:10:43.156Z,14.75
2023-04-10T09:13:10.320Z,14.31
2023-04-10T09:15:58.308Z,14.48
2023-04-10T09:18:48.875Z,14.20
2023-04-10T09:21:19.712Z,14.43
2023-04-10T09:23:48.751Z,14.57
2023-04-10T09:26:31.705Z,14.89
2023-04-10T09:29:02.803Z,15.47
2023-04-10T09:31:40.159Z,15.12
2023-04-10T09:34:12.375Z,15.34
2023-04-10T09:36:43.883Z,15.51
2023-04-10T09:39:12.623Z,15.15
2023-04-10T09:41:53.118Z,15.49
2023-04-10T09:44:33.151Z,15.90
2023-04-10T09:47:18.435Z,15.82
2023-04-10T09:49:53.636Z,15.58
2023-04-10T09:52:27.222Z,15.68
2023-04-10T09:54:59.509Z,15.63
2023-04-10T09:57:31.903Z,15.29
2023-04-10T10:00:04.085Z,14.92
2023-04-10T10:02:39.205Z,15.51
2023-04-10T10:05:07.910Z,15.68
2023-04-10T10:07:35.825Z,15.41
2023-04-10T10:10:04.043Z,15.30
2023-04-10T10:12:48.334Z,16.92
2023-04-10T10:15:28.213Z,16.52
2023-04-10T10:18:26.643Z,15.64
2023-04-10T10:20:54.229Z,15.49
2023-04-10T10:23:22.583Z,16.29
2023-04-10T10:25:50.498Z,16.50
2023-04-10T10:28:20.693Z,15.92
2023-04-10T10:30:49.859Z,15.57
2023-04-10T10:33:17.942Z,16.54
2023-04-10T10:35:45.385Z,17.06
2023-04-10T10:38:12.992Z,17.98
2023-04-10T10:40:57.897Z,17.96
2023-04-10T10:43:38.169Z,17.69
2023-04-10T10:46:15.105Z,18.52
2023-04-10T10:48:59.511Z,19.17
2023-04-10T10:51:51.023Z,18.35
2023-04-10T10:54:38.880Z,19.02
2023-04-10T10:57:48.632Z,18.19
2023-04-10T11:00:16.969Z,17.78
2023-04-10T11:02:44.620Z,18.54
2023-04-10T11:05:54.257Z,18.73
2023-04-10T11:08:47.268Z,18.49
2023-04-10T11:11:23.581Z,17.71
2023-04-10T11:13:53.376Z,16.54
2023-04-10T11:16:22.490Z,17.95
2023-04-10T11:18:55.774Z,18.56
2023-04-10T11:21:29.870Z,19.24
2023-04-10T11:23:57.262Z,19.96
2023-04-10T11:26:43.168Z,19.97
2023-04-10T11:29:15.719Z,21.94
2023-04-10T11:31:45.099Z,22.92
2023-04-10T11:34:12.884Z,24.06
2023-04-10T11:36:42.813Z,23.30
2023-04-10T11:39:18.531Z,24.29
2023-04-10T11:41:51.651Z,25.35
2023-04-10T11:44:26.482Z,24.73
2023-04-10T11:46:54.002Z,24.64
2023-04-10T11:49:24.705Z,24.91
2023-04-10T11:51:52.471Z,25.83
2023-04-10T11:54:21.564Z,25.92
2023-04-10T11:57:09.834Z,25.77
2023-04-10T11:59:36.824Z,24.14
2023-04-10T12:02:14.865Z,25.94
2023-04-10T12:04:44.210Z,25.72
2023-04-10T12:07:11.789Z,25.05
2023-04-10T12:09:38.951Z,26.05
2023-04-10T12:12:08.226Z,27.84
2023-04-10T12:14:36.934Z,26.37
2023-04-10T12:17:05.592Z,27.66
2023-04-10T12:19:34.244Z,27.81
2023-04-10T12:22:02.892Z,27.48
2023-04-10T12:24:50.050Z,27.65
2023-04-10T12:27:27.925Z,28.74
2023-04-10T12:29:57.399Z,29.73
2023-04-10T12:32:27.277Z,28.83
2023-04-10T12:35:01.391Z,26.93
2023-04-10T12:37:54.416Z,27.66
2023-04-10T12:40:21.599Z,28.60
2023-04-10T12:42:48.652Z,27.89
2023-04-10T12:45:15.939Z,26.75
2023-04-10T12:47:54.074Z,28.23
2023-04-10T12:50:21.548Z,27.20
2023-04-10T12:53:04.998Z,26.60
2023-04-10T12:55:33.265Z,24.37
2023-04-10T12:58:20.353Z,26.74
2023-04-10T13:00:48.390Z,25.98
2023-04-10T13:03:15.801Z,25.02
2023-04-10T13:05:44.547Z,23.87
2023-04-10T13:08:11.561Z,23.36
2023-04-10T13:10:38.893Z,22.24
2023-04-10T13:13:07.173Z,22.29
2023-04-10T13:15:34.920Z,21.74
2023-04-10T13:18:03.716Z,22.17
2023-04-10T13:20:34.170Z,22.17
2023-04-10T13:23:02.804Z,20.84
2023-04-10T13:25:37.180Z,21.82
2023-04-10T13:28:09.991Z,23.17
2023-04-10T13:30:41.569Z,24.04
2023-04-10T13:33:09.613Z,22.74
2023-04-10T13:35:36.704Z,22.84
2023-04-10T13:38:04.028Z,23.86
2023-04-10T13:40:31.174Z,23.40
2023-04-10T13:42:58.238Z,22.91
2023-04-10T13:45:25.374Z,22.53
2023-04-10T13:47:52.515Z,23.26
2023-04-10T13:50:20.239Z,22.61
2023-04-10T13:52:47.191Z,22.78
2023-04-10T13:55:14.145Z,22.77
2023-04-10T13:57:41.895Z,23.21
2023-04-10T14:00:10.327Z,22.53
2023-04-10T14:02:40.271Z,22.07
2023-04-10T14:05:07.955Z,22.36
2023-04-10T14:07:35.060Z,21.39
2023-04-10T14:10:02.681Z,21.69
2023-04-10T14:12:29.660Z,21.69
2023-04-10T14:14:56.915Z,22.16
2023-04-10T14:17:24.266Z,22.17
2023-04-10T14:19:52.371Z,22.30
2023-04-10T14:22:19.618Z,22.42
2023-04-10T14:24:46.731Z,22.72
2023-04-10T14:27:13.879Z,21.85
2023-04-10T14:29:50.494Z,21.64
2023-04-10T14:32:21.593Z,21.52
2023-04-10T14:34:48.710Z,21.40
2023-04-10T14:37:15.793Z,22.12
2023-04-10T14:39:46.518Z,22.19
2023-04-10T14:42:13.459Z,21.61
2023-04-10T14:44:40.577Z,21.49
2023-04-10T14:47:08.037Z,21.05
2023-04-10T14:49:35.050Z,21.65
2023-04-10T14:52:01.991Z,21.42
2023-04-10T14:54:28.956Z,21.74
2023-04-10T14:56:57.279Z,21.73
2023-04-10T14:59:24.407Z,22.00
2023-04-10T15:01:53.923Z,22.51
2023-04-10T15:04:21.213Z,22.13
2023-04-10T15:06:48.171Z,21.93
2023-04-10T15:09:15.133Z,22.49
2023-04-10T15:11:42.193Z,22.39
2023-04-10T15:14:09.192Z,21.73
2023-04-10T15:16:36.366Z,21.94
2023-04-10T15:19:03.384Z,22.03
2023-04-10T15:21:31.220Z,22.02
2023-04-10T15:23:58.225Z,22.34
2023-04-10T15:26:25.327Z,22.24
2023-04-10T15:28:52.888Z,22.37
2023-04-10T15:31:23.744Z,22.26
2023-04-10T15:33:52.312Z,21.17
2023-04-10T15:36:19.445Z,21.21
2023-04-10T15:38:48.141Z,21.35
2023-04-10T15:41:16.763Z,21.20
2023-04-10T15:43:43.682Z,20.69
2023-04-10T15:46:10.828Z,21.27
2023-04-10T15:48:38.208Z,21.54
2023-04-10T15:51:06.629Z,21.14
2023-04-10T15:53:34.658Z,20.96
2023-04-10T15:56:04.274Z,21.00
2023-04-10T15:58:31.195Z,21.18
2023-04-10T16:00:58.118Z,21.58
2023-04-10T16:03:28.590Z,21.60
2023-04-10T16:05:58.261Z,21.49
2023-04-10T16:08:26.176Z,21.47
2023-04-10T16:10:53.834Z,21.54
2023-04-10T16:13:20.898Z,21.63
2023-04-10T16:15:49.036Z,21.04
2023-04-10T16:18:16.104Z,21.16
2023-04-10T16:20:43.616Z,21.59
2023-04-10T16:23:10.814Z,21.27
2023-04-10T16:25:37.957Z,20.88
2023-04-10T16:28:07.795Z,21.29
2023-04-10T16:30:35.966Z,21.25
2023-04-10T16:33:04.290Z,21.61
2023-04-10T16:35:31.969Z,21.37
2023-04-10T16:37:59.097Z,21.45
2023-04-10T16:40:32.267Z,21.08
2023-04-10T16:43:02.737Z,21.19
2023-04-10T16:45:29.987Z,21.22
2023-04-10T16:47:57.226Z,20.88
2023-04-10T16:50:24.390Z,21.03
2023-04-10T16:52:51.345Z,21.16
2023-04-10T16:55:18.627Z,20.93
2023-04-10T16:57:46.358Z,21.01
2023-04-10T17:00:14.026Z,21.12
2023-04-10T17:02:42.835Z,21.11
2023-04-10T17:05:11.461Z,21.00
2023-04-10T17:07:39.042Z,20.89
2023-04-10T17:10:06.549Z,20.97
2023-04-10T17:12:33.612Z,20.78
2023-04-10T17:15:00.738Z,20.57
2023-04-10T17:17:27.964Z,21.02
2023-04-10T17:19:55.710Z,20.81
2023-04-10T17:22:23.373Z,20.82
2023-04-10T17:24:50.489Z,20.69
2023-04-10T17:27:17.495Z,20.74
2023-04-10T17:29:44.566Z,20.29
2023-04-10T17:32:11.760Z,20.70
2023-04-10T17:34:39.141Z,20.17
2023-04-10T17:37:06.285Z,20.54
2023-04-10T17:39:33.418Z,20.42
2023-04-10T17:42:01.449Z,20.01
2023-04-10T17:44:28.447Z,20.36
2023-04-10T17:46:55.533Z,19.89
2023-04-10T17:49:22.623Z,19.83
2023-04-10T17:51:49.929Z,20.04
2023-04-10T17:54:17.011Z,20.26
2023-04-10T17:56:44.027Z,20.36
2023-04-10T17:59:11.242Z,20.33
2023-04-10T18:01:38.584Z,20.20
2023-04-10T18:04:06.700Z,19.91
2023-04-10T18:06:33.877Z,19.48
2023-04-10T18:09:00.891Z,20.00
2023-04-10T18:11:28.506Z,20.13
2023-04-10T18:13:55.758Z,19.78
2023-04-10T18:16:22.859Z,20.05
2023-04-10T18:18:50.119Z,20.09
2023-04-10T18:21:18.224Z,19.76
2023-04-10T18:23:49.164Z,19.77
2023-04-10T18:26:20.966Z,19.39
2023-04-10T18:28:48.165Z,19.48
2023-04-10T18:31:16.631Z,19.77
2023-04-10T18:33:43.719Z,19.66
2023-04-10T18:36:11.378Z,19.69
2023-04-10T18:38:41.171Z,19.70
2023-04-10T18:41:08.541Z,19.79
2023-04-10T18:43:38.416Z,19.96
2023-04-10T18:46:06.437Z,19.75
2023-04-10T18:48:36.060Z,19.78
2023-04-10T18:51:03.165Z,20.02
2023-04-10T18:53:30.321Z,20.03
2023-04-10T18:55:57.443Z,20.10
2023-04-10T18:58:24.630Z,19.72
2023-04-10T19:00:53.709Z,20.07
2023-04-10T19:03:20.950Z,19.67
2023-04-10T19:05:48.054Z,19.83
2023-04-10T19:08:15.754Z,19.74
2023-04-10T19:10:43.363Z,19.40
2023-04-10T19:13:12.055Z,19.69
2023-04-10T19:15:45.414Z,19.71
2023-04-10T19:18:14.124Z,19.37
2023-04-10T19:20:52.619Z,19.35
2023-04-10T19:23:21.259Z,19.51
2023-04-10T19:25:55.023Z,19.73
2023-04-10T19:28:23.501Z,19.85
2023-04-10T19:30:53.283Z,19.43
2023-04-10T19:33:20.829Z,19.63
2023-04-10T19:35:47.918Z,19.52
2023-04-10T19:38:15.006Z,19.45
2023-04-10T19:40:42.172Z,19.38
2023-04-10T19:43:09.214Z,19.41
2023-04-10T19:45:37.584Z,19.68
2023-04-10T19:48:05.161Z,19.34
2023-04-10T19:50:32.197Z,19.52
2023-04-10T19:52:59.743Z,19.53
2023-04-10T19:55:27.400Z,19.56
2023-04-10T19:57:54.948Z,19.36
2023-04-10T20:00:22.195Z,19.01
2023-04-10T20:02:49.256Z,19.72
2023-04-10T20:05:16.463Z,19.34
2023-04-10T20:07:43.575Z,19.63
2023-04-10T20:10:10.801Z,19.48
2023-04-10T20:12:38.609Z,19.16
2023-04-10T20:15:06.586Z,19.52
2023-04-10T20:17:33.699Z,19.76
2023-04-10T20:20:00.724Z,19.51
2023-04-10T20:22:29.012Z,19.52
2023-04-10T20:24:56.084Z,19.14
2023-04-10T20:27:24.670Z,19.33
2023-04-10T20:29:51.679Z,19.51
2023-04-10T20:32:19.052Z,19.55
2023-04-10T20:34:46.079Z,19.57
2023-04-10T20:37:17.268Z,19.26
2023-04-10T20:39:44.296Z,19.17
2023-04-10T20:42:11.363Z,19.22
2023-04-10T20:44:38.889Z,19.13
2023-04-10T20:47:06.683Z,19.22
2023-04-10T20:49:34.511Z,18.90
2023-04-10T20:52:01.552Z,19.31
2023-04-10T20:54:28.961Z,18.85
2023-04-10T20:57:00.169Z,18.97
2023-04-10T20:59:27.597Z,19.08
2023-04-10T21:01:54.725Z,19.13
2023-04-10T21:04:22.310Z,19.06
2023-04-10T21:06:49.750Z,19.36
2023-04-10T21:09:16.718Z,19.36
2023-04-10T21:11:44.098Z,18.64
2023-04-10T21:14:11.182Z,18.85
2023-04-10T21:16:41.338Z,18.97
2023-04-10T21:19:11.869Z,19.33
2023-04-10T21:21:39.289Z,19.25
2023-04-10T21:24:06.963Z,19.37
2023-04-10T21:26:34.085Z,18.59
2023-04-10T21:29:01.466Z,18.99
2023-04-10T21:31:29.069Z,18.73
2023-04-10T21:33:56.265Z,18.74
2023-04-10T21:36:23.404Z,19.44
2023-04-10T21:38:50.464Z,18.89
2023-04-10T21:41:17.488Z,18.87
2023-04-10T21:43:44.937Z,19.30
2023-04-10T21:46:12.016Z,19.28
2023-04-10T21:48:39.030Z,18.95
2023-04-10T21:51:06.487Z,18.86
2023-04-10T21:53:33.482Z,19.08
2023-04-10T21:56:00.553Z,18.88
2023-04-10T21:58:27.562Z,18.75
2023-04-10T22:00:54.820Z,18.67
2023-04-10T22:03:22.293Z,19.01
2023-04-10T22:05:50.643Z,19.09
2023-04-10T22:08:19.961Z,18.66
2023-04-10T22:10:48.105Z,19.03
2023-04-10T22:13:23.701Z,18.85
2023-04-10T22:15:57.595Z,18.52
2023-04-10T22:18:24.643Z,18.84
2023-04-10T22:20:51.755Z,19.40
2023-04-10T22:23:18.841Z,19.17
2023-04-10T22:25:46.016Z,19.16
2023-04-10T22:28:13.052Z,19.29
2023-04-10T22:30:40.121Z,19.36
2023-04-10T22:33:07.386Z,19.24
2023-04-10T22:35:34.486Z,19.04
2023-04-10T22:38:03.741Z,19.32
2023-04-10T22:40:31.421Z,19.56
2023-04-10T22:42:58.430Z,18.68
2023-04-10T22:45:25.882Z,18.97
2023-04-10T22:47:52.916Z,19.28
2023-04-10T22:50:21.103Z,19.42
2023-04-10T22:52:48.321Z,18.76
2023-04-10T22:55:15.795Z,18.69
2023-04-10T22:57:46.920Z,18.64
2023-04-10T23:00:14.384Z,18.53
2023-04-10T23:02:41.538Z,18.98
2023-04-10T23:05:09.283Z,19.03
2023-04-10T23:07:36.234Z,18.94
2023-04-10T23:10:03.302Z,18.94
2023-04-10T23:12:30.413Z,18.79
2023-04-10T23:14:57.932Z,18.77
2023-04-10T23:17:25.525Z,19.16
2023-04-10T23:19:53.001Z,18.76
2023-04-10T23:22:20.073Z,18.47
2023-04-10T23:24:48.117Z,19.04
2023-04-10T23:27:15.221Z,18.83
2023-04-10T23:29:42.220Z,19.27
2023-04-10T23:32:09.332Z,19.23
2023-04-10T23:34:36.376Z,19.48
2023-04-10T23:37:03.426Z,19.53
2023-04-10T23:39:30.566Z,19.45
2023-04-10T23:41:57.846Z,19.48
2023-04-10T23:44:25.098Z,18.87
2023-04-10T23:46:52.223Z,19.46
2023-04-10T23:49:19.311Z,19.17
2023-04-10T23:51:46.314Z,19.41
2023-04-10T23:54:13.843Z,19.16
2023-04-10T23:56:41.448Z,18.82
2023-04-10T23:59:08.518Z,18.85
